Time;durP1;ratioP1;P1;durP2;ratioP2;P2;SDS_P1;SDS_P2;PMS_P1;PMS_P2;Temp;Humidity;BMP_temperature;BMP_pressure;BME280_temperature;BME280_humidity;BME280_pressure;Samples;Min_cycle;Max_cycle;Signal;HPM_P1;HPM_P2
2021/05/13 00:02:22;;;;;;;9.18;4.38;;;;;;;14.52;60.68;99273.72;5032245;28;20087;-77
2021/05/13 00:04:49;;;;;;;10.38;4.53;;;;;;;14.52;60.76;99268.41;5035890;28;20061;-77
2021/05/13 00:07:16;;;;;;;6.82;4.15;;;;;;;14.53;60.79;99267.44;5035947;28;20085;-77
2021/05/13 00:09:44;;;;;;;7.28;4.03;;;;;;;14.52;60.88;99263.13;5035695;28;20053;-77
2021/05/13 00:12:27;;;;;;;7.07;4.00;;;;;;;14.51;60.86;99257.00;5035624;28;20061;-77
2021/05/13 00:14:54;;;;;;;6.05;3.97;;;;;;;14.51;60.89;99257.00;5035229;28;20053;-77
2021/05/13 00:17:21;;;;;;;5.57;4.22;;;;;;;14.50;60.83;99260.59;5035492;28;20136;-77
2021/05/13 00:19:48;;;;;;;7.90;4.05;;;;;;;14.49;60.82;99263.34;5035877;28;20140;-77
2021/05/13 00:22:15;;;;;;;9.32;4.38;;;;;;;14.46;61.09;99260.00;5035409;28;20065;-77
2021/05/13 00:24:41;;;;;;;9.73;4.40;;;;;;;14.44;61.05;99261.91;5034980;28;20425;-77
2021/05/13 00:27:09;;;;;;;6.38;4.22;;;;;;;14.44;61.25;99261.91;5035157;28;20056;-77
2021/05/13 00:29:35;;;;;;;7.35;4.57;;;;;;;14.42;61.14;99253.28;5035484;28;20049;-77
2021/05/13 00:32:02;;;;;;;7.95;4.28;;;;;;;14.42;61.24;99249.78;5035596;28;20057;-77
2021/05/13 00:34:29;;;;;;;6.90;4.40;;;;;;;14.41;61.43;99246.31;5035121;28;20690;-77
2021/05/13 00:36:55;;;;;;;9.30;4.80;;;;;;;14.40;61.30;99244.63;5035218;28;20049;-77
2021/05/13 00:39:23;;;;;;;7.15;4.35;;;;;;;14.40;61.24;99247.28;5034821;28;20057;-77
2021/05/13 00:41:50;;;;;;;9.07;4.45;;;;;;;14.39;61.08;99242.09;5035334;28;20057;-77
2021/05/13 00:44:17;;;;;;;6.38;4.40;;;;;;;14.37;61.07;99242.22;5036193;28;20438;-77
2021/05/13 00:46:44;;;;;;;8.82;4.43;;;;;;;14.36;60.86;99237.91;5035116;28;20091;-77
2021/05/13 00:49:14;;;;;;;7.75;4.15;;;;;;;14.35;60.91;99240.66;5035137;28;20060;-77
2021/05/13 00:51:41;;;;;;;7.00;4.70;;;;;;;14.33;60.71;99248.72;5034854;28;20494;-77
2021/05/13 00:54:09;;;;;;;7.65;4.32;;;;;;;14.29;60.89;99242.84;5034516;28;20128;-77
2021/05/13 00:56:36;;;;;;;9.40;4.43;;;;;;;14.29;60.74;99247.28;5034373;28;20053;-77
2021/05/13 00:59:09;;;;;;;8.15;5.15;;;;;;;14.27;60.78;99241.28;5035136;28;20057;-77
2021/05/13 01:04:18;;;;;;;8.35;4.45;;;;;;;14.25;60.88;99241.41;5035808;28;20088;-77
2021/05/13 01:06:47;;;;;;;8.57;4.32;;;;;;;14.25;60.96;99236.13;5034519;28;20485;-77
2021/05/13 01:09:21;;;;;;;9.75;4.78;;;;;;;14.25;60.78;99241.41;5034347;28;20091;-77
2021/05/13 01:12:15;;;;;;;14.25;4.50;;;;;;;14.26;60.97;99248.38;5034635;28;20128;-77
2021/05/13 01:17:23;;;;;;;9.88;4.90;;;;;;;14.23;61.21;99242.47;5035595;28;20500;-77
2021/05/13 01:19:55;;;;;;;7.82;4.63;;;;;;;14.22;61.13;99241.66;5034654;28;20100;-74
2021/05/13 01:22:24;;;;;;;10.93;4.83;;;;;;;14.23;60.66;99238.03;5034962;28;20053;-74
2021/05/13 01:24:54;;;;;;;9.10;4.40;;;;;;;14.20;60.92;99233.84;5034434;28;20327;-74
2021/05/13 01:27:21;;;;;;;10.25;4.82;;;;;;;14.22;60.50;99246.09;5034544;28;20059;-74
2021/05/13 01:29:49;;;;;;;7.45;4.07;;;;;;;14.18;60.39;99238.44;5034472;28;20088;-74
2021/05/13 01:32:20;;;;;;;7.32;4.32;;;;;;;14.15;61.09;99241.31;5034810;28;20053;-74
2021/05/13 01:34:47;;;;;;;10.13;5.38;;;;;;;14.14;60.61;99236.13;5034151;28;20085;-74
2021/05/13 01:37:18;;;;;;;10.80;4.18;;;;;;;14.08;61.11;99226.88;5034430;28;20473;-74
2021/05/13 01:39:45;;;;;;;9.52;4.97;;;;;;;14.06;60.77;99231.47;5034345;28;20148;-74
2021/05/13 01:42:14;;;;;;;7.57;4.55;;;;;;;14.02;60.95;99228.22;5034230;28;20128;-74
2021/05/13 01:44:43;;;;;;;11.00;4.88;;;;;;;14.00;60.67;99237.25;5034082;28;20096;-74
2021/05/13 01:47:10;;;;;;;7.47;5.00;;;;;;;13.97;60.78;99235.69;5034457;28;20483;-74
2021/05/13 01:49:37;;;;;;;8.43;4.90;;;;;;;13.93;60.87;99236.88;5034093;28;20088;-74
2021/05/13 01:52:04;;;;;;;7.22;4.20;;;;;;;13.90;60.89;99227.41;5034544;28;20441;-74
2021/05/13 01:54:31;;;;;;;7.50;4.50;;;;;;;13.89;61.15;99235.44;5033965;28;20132;-74
2021/05/13 01:57:20;;;;;;;11.45;5.57;;;;;;;13.83;62.05;99228.84;5034998;28;20056;-74
2021/05/13 01:59:47;;;;;;;8.18;5.13;;;;;;;13.85;61.19;99226.94;5034156;28;20089;-74
2021/05/13 02:02:15;;;;;;;13.00;5.40;;;;;;;13.85;61.28;99231.38;5033804;28;20140;-74
2021/05/13 02:04:42;;;;;;;8.50;5.63;;;;;;;13.83;61.40;99231.47;5033315;28;20049;-74
2021/05/13 02:07:09;;;;;;;10.55;5.88;;;;;;;13.81;61.52;99223.69;5033930;28;20059;-74
2021/05/13 02:09:37;;;;;;;11.80;6.10;;;;;;;13.81;61.72;99223.69;5033793;28;20136;-74
2021/05/13 02:12:04;;;;;;;9.45;5.20;;;;;;;13.78;61.56;99216.00;5033774;28;20095;-74
2021/05/13 02:14:31;;;;;;;7.93;5.28;;;;;;;13.77;61.69;99222.25;5034567;28;20144;-74
2021/05/13 02:16:58;;;;;;;8.63;5.93;;;;;;;13.75;61.79;99218.06;5033307;28;20053;-74
2021/05/13 02:19:26;;;;;;;8.73;5.50;;;;;;;13.74;61.82;99221.63;5033514;28;20053;-74
2021/05/13 02:21:55;;;;;;;9.63;5.90;;;;;;;13.73;62.33;99225.25;5033447;28;20053;-74
2021/05/13 02:24:21;;;;;;;9.73;6.03;;;;;;;13.74;62.08;99221.63;5033434;28;20103;-74
2021/05/13 02:26:52;;;;;;;11.43;6.40;;;;;;;13.72;62.75;99215.63;5034556;28;20103;-74
2021/05/13 02:29:20;;;;;;;12.98;6.15;;;;;;;13.76;62.20;99211.78;5033625;28;20409;-74
2021/05/13 02:31:47;;;;;;;13.38;6.32;;;;;;;13.77;62.22;99203.75;5033728;28;20057;-75
2021/05/13 02:34:14;;;;;;;11.63;6.50;;;;;;;13.77;62.08;99201.09;5032418;28;20052;-75
2021/05/13 02:36:41;;;;;;;11.30;6.25;;;;;;;13.77;62.19;99195.81;5032662;28;20052;-77
2021/05/13 02:39:08;;;;;;;8.52;6.35;;;;;;;13.79;62.09;99190.34;5033200;28;20128;-77
2021/05/13 02:41:38;;;;;;;9.77;6.38;;;;;;;13.76;62.42;99198.56;5033017;28;20094;-77
2021/05/13 02:44:05;;;;;;;12.23;6.72;;;;;;;13.76;62.15;99182.69;5032586;28;20061;-77
2021/05/13 02:46:32;;;;;;;9.13;6.18;;;;;;;13.74;62.10;99185.44;5032528;28;20088;-77
2021/05/13 02:48:59;;;;;;;11.10;6.25;;;;;;;13.74;62.12;99190.75;5032344;28;20136;-75
2021/05/13 02:51:26;;;;;;;10.07;6.35;;;;;;;13.74;62.23;99184.59;5031757;28;20084;-74
2021/05/13 02:53:53;;;;;;;9.98;5.72;;;;;;;13.73;62.22;99175.00;5032376;28;20140;-75
2021/05/13 02:56:19;;;;;;;9.05;5.50;;;;;;;13.71;62.11;99171.66;5032229;28;20053;-75
2021/05/13 02:58:49;;;;;;;10.85;6.15;;;;;;;13.70;62.02;99168.16;5032248;28;20131;-74
2021/05/13 03:03:50;;;;;;;10.75;6.03;;;;;;;13.67;62.21;99158.66;5033419;28;20053;-75
2021/05/13 03:06:17;;;;;;;11.95;6.40;;;;;;;13.65;62.15;99157.91;5032198;28;20050;-75
2021/05/13 03:08:45;;;;;;;11.57;5.93;;;;;;;13.63;62.16;99157.22;5032301;28;20498;-75
2021/05/13 03:11:12;;;;;;;12.18;6.55;;;;;;;13.62;62.22;99157.34;5032194;28;20103;-75
2021/05/13 03:13:39;;;;;;;10.77;5.88;;;;;;;13.59;62.16;99155.78;5031644;28;20085;-75
2021/05/13 03:16:05;;;;;;;9.30;5.68;;;;;;;13.57;61.89;99155.03;5031887;28;20061;-75
2021/05/13 03:18:34;;;;;;;10.30;6.05;;;;;;;13.56;62.03;99148.09;5031873;28;20054;-75
2021/05/13 03:23:37;;;;;;;15.13;6.88;;;;;;;13.52;62.14;99152.78;5033301;28;20529;-75
2021/05/13 03:26:04;;;;;;;14.13;6.32;;;;;;;13.50;62.15;99151.22;5031547;28;20417;-75
2021/05/13 03:28:31;;;;;;;11.15;6.32;;;;;;;13.47;62.21;99141.69;5031378;28;20136;-75
2021/05/13 03:30:58;;;;;;;14.80;6.70;;;;;;;13.40;62.23;99151.91;5031701;28;20049;-75
2021/05/13 03:33:25;;;;;;;14.93;7.20;;;;;;;13.36;62.26;99146.97;5031488;28;20108;-74
2021/05/13 03:35:52;;;;;;;10.93;6.57;;;;;;;13.31;62.35;99150.00;5031468;28;20140;-75
2021/05/13 03:38:20;;;;;;;11.57;6.38;;;;;;;13.25;62.48;99148.69;5031016;28;20055;-74
2021/05/13 03:40:48;;;;;;;12.73;6.80;;;;;;;13.21;62.48;99144.59;5031467;28;20132;-74
2021/05/13 03:43:15;;;;;;;11.20;7.00;;;;;;;13.17;62.68;99143.16;5031538;28;20141;-74
2021/05/13 03:45:42;;;;;;;13.52;6.93;;;;;;;13.13;62.89;99139.88;5031249;28;20054;-74
2021/05/13 03:48:09;;;;;;;15.13;7.47;;;;;;;13.11;62.92;99138.31;5032959;28;20060;-74
2021/05/13 03:50:38;;;;;;;13.90;7.13;;;;;;;13.08;62.99;99126.19;5031699;28;20554;-74
2021/05/13 03:53:06;;;;;;;13.13;6.82;;;;;;;13.06;63.08;99128.13;5031605;28;20502;-75
2021/05/13 03:55:33;;;;;;;10.82;7.05;;;;;;;13.05;63.12;99134.38;5031280;28;20128;-74
2021/05/13 03:58:02;;;;;;;12.88;7.18;;;;;;;13.03;63.18;99126.56;5031783;28;20084;-74
2021/05/13 04:00:38;;;;;;;13.27;6.47;;;;;;;13.01;62.77;99131.13;5031744;28;20061;-74
2021/05/13 04:03:05;;;;;;;13.18;5.65;;;;;;;13.00;62.87;99128.59;5031599;28;20053;-74
2021/05/13 04:05:32;;;;;;;11.27;6.03;;;;;;;12.98;62.94;99118.13;5031028;28;20248;-74
2021/05/13 04:07:58;;;;;;;9.30;5.57;;;;;;;12.96;62.77;99120.06;5031310;28;20102;-78
2021/05/13 04:10:26;;;;;;;11.88;5.18;;;;;;;12.94;62.68;99115.88;5031473;28;20449;-79
2021/05/13 04:12:55;;;;;;;10.75;5.47;;;;;;;12.94;62.71;99118.50;5031518;28;20059;-78
2021/05/13 04:15:22;;;;;;;10.35;5.55;;;;;;;12.93;62.64;99111.56;5031572;28;20555;-78
2021/05/13 04:17:49;;;;;;;14.40;5.47;;;;;;;12.90;62.54;99113.44;5031211;28;20053;-78
2021/05/13 04:20:16;;;;;;;13.95;5.47;;;;;;;12.90;62.63;99113.44;5031317;28;20095;-78
2021/05/13 04:22:42;;;;;;;11.07;4.72;;;;;;;12.90;62.62;99118.75;5031143;28;20049;-78
2021/05/13 04:25:10;;;;;;;12.93;5.97;;;;;;;12.90;62.73;99107.34;5031398;28;20494;-78
2021/05/13 04:27:36;;;;;;;11.25;6.13;;;;;;;12.92;62.69;99115.97;5031449;28;20132;-78
2021/05/13 04:30:04;;;;;;;16.83;6.63;;;;;;;12.92;62.74;99109.84;5031391;28;20577;-78
2021/05/13 04:32:31;;;;;;;12.07;5.97;;;;;;;12.93;62.58;99108.91;5031366;28;20136;-79
2021/05/13 04:34:58;;;;;;;9.95;5.47;;;;;;;12.92;62.51;99100.13;5031604;28;20053;-78
2021/05/13 04:37:25;;;;;;;10.65;4.97;;;;;;;12.90;62.66;99096.78;5030954;28;20053;-78
2021/05/13 04:39:52;;;;;;;12.25;5.63;;;;;;;12.90;62.79;99096.78;5030899;28;20056;-78
2021/05/13 04:42:19;;;;;;;11.50;5.82;;;;;;;12.90;63.21;99097.59;5031120;28;20064;-79
2021/05/13 04:44:46;;;;;;;12.38;7.18;;;;;;;12.92;63.13;99099.28;5031289;28;20076;-79
2021/05/13 04:47:24;;;;;;;15.48;8.50;;;;;;;12.94;63.24;99100.03;5031017;28;20132;-78
2021/05/13 04:49:53;;;;;;;12.48;7.15;;;;;;;12.94;63.47;99095.59;5034082;28;20095;-78
2021/05/13 04:52:24;;;;;;;9.70;6.75;;;;;;;12.95;63.80;99099.91;5034558;28;20136;-78
2021/05/13 04:54:52;;;;;;;10.95;6.90;;;;;;;12.98;63.73;99102.28;5034575;28;20148;-78
2021/05/13 04:57:20;;;;;;;10.50;6.57;;;;;;;13.00;63.68;99096.88;5034173;28;20477;-79
2021/05/13 04:59:47;;;;;;;11.93;7.28;;;;;;;13.03;63.82;99099.31;5035077;28;20079;-78
2021/05/13 05:02:15;;;;;;;13.73;7.28;;;;;;;13.05;64.06;99101.81;5034636;28;20139;-79
2021/05/13 05:04:42;;;;;;;10.80;7.55;;;;;;;13.08;63.91;99110.34;5034656;28;20088;-78
2021/05/13 05:07:10;;;;;;;12.52;7.22;;;;;;;13.11;63.88;99109.25;5034574;28;20084;-78
2021/05/13 05:09:38;;;;;;;13.73;7.43;;;;;;;13.12;64.03;99105.69;5034579;28;20064;-79
2021/05/13 05:12:07;;;;;;;12.05;6.78;;;;;;;13.15;63.95;99108.06;5034352;28;20136;-78
2021/05/13 05:14:34;;;;;;;11.82;7.25;;;;;;;13.17;64.09;99108.78;5033834;28;20085;-78
2021/05/13 05:17:02;;;;;;;11.68;6.45;;;;;;;13.19;63.90;99112.16;5034174;28;20058;-79
2021/05/13 05:19:30;;;;;;;11.07;6.93;;;;;;;13.21;63.75;99102.31;5034482;28;20076;-79
2021/05/13 05:21:58;;;;;;;12.30;6.78;;;;;;;13.22;64.08;99097.84;5034240;28;20111;-79
2021/05/13 05:24:25;;;;;;;8.32;6.25;;;;;;;13.24;63.82;99098.59;5034042;28;20509;-78
2021/05/13 05:26:53;;;;;;;9.18;5.65;;;;;;;13.24;64.06;99102.03;5034035;28;20059;-78
2021/05/13 05:29:21;;;;;;;11.07;6.38;;;;;;;13.28;63.89;99100.03;5034052;28;20124;-78
2021/05/13 05:31:48;;;;;;;12.07;6.28;;;;;;;13.30;64.03;99087.50;5033998;28;20128;-78
2021/05/13 05:34:15;;;;;;;10.90;6.03;;;;;;;13.34;64.07;99088.94;5034849;28;20056;-78
2021/05/13 05:36:41;;;;;;;13.05;5.97;;;;;;;13.38;64.09;99094.84;5033826;28;20141;-78
2021/05/13 05:39:08;;;;;;;13.38;5.95;;;;;;;13.43;63.94;99088.22;5033918;28;20128;-78
2021/05/13 05:41:36;;;;;;;9.43;5.53;;;;;;;13.47;64.11;99093.25;5033795;28;20053;-79
2021/05/13 05:44:03;;;;;;;10.85;5.90;;;;;;;13.52;63.89;99097.25;5033660;28;20057;-78
2021/05/13 05:46:30;;;;;;;12.68;6.50;;;;;;;13.55;64.05;99096.16;5033473;28;20088;-79
2021/05/13 05:48:57;;;;;;;12.20;5.75;;;;;;;13.59;64.01;99091.47;5033835;28;20524;-79
2021/05/13 05:51:25;;;;;;;10.20;5.25;;;;;;;13.63;64.02;99088.47;5033369;28;20088;-78
2021/05/13 05:53:52;;;;;;;10.73;5.28;;;;;;;13.68;63.77;99078.34;5033820;28;20550;-79
2021/05/13 05:56:18;;;;;;;8.77;4.57;;;;;;;13.72;63.45;99078.91;5033714;28;20140;-78
2021/05/13 05:58:48;;;;;;;9.80;4.93;;;;;;;13.77;63.35;99083.84;5033378;28;20549;-79
2021/05/13 06:01:16;;;;;;;9.23;4.07;;;;;;;13.83;63.09;99088.63;5032984;28;20049;-78
2021/05/13 06:03:44;;;;;;;8.07;4.72;;;;;;;13.88;62.73;99090.91;5033316;28;20057;-79
2021/05/13 06:06:12;;;;;;;8.98;4.30;;;;;;;13.93;62.79;99083.44;5014747;28;20057;-78
2021/05/13 06:08:39;;;;;;;6.68;4.10;;;;;;;13.98;62.68;99083.06;5029851;28;20489;-78
2021/05/13 06:11:05;;;;;;;11.02;4.30;;;;;;;14.01;62.51;99083.66;5030170;28;20137;-79
2021/05/13 06:13:32;;;;;;;14.25;4.53;;;;;;;14.06;62.43;99080.63;5013359;28;20060;-79
2021/05/13 06:15:59;;;;;;;9.07;4.25;;;;;;;14.11;62.09;99077.59;5029208;28;20074;-79
2021/05/13 06:18:29;;;;;;;10.43;4.70;;;;;;;14.16;61.90;99073.59;5030228;28;20132;-74
2021/05/13 06:21:01;;;;;;;7.28;3.80;;;;;;;14.19;62.00;99070.69;5031655;28;20104;-74
2021/05/13 06:23:29;;;;;;;9.55;4.25;;;;;;;14.27;61.97;99071.84;5033150;28;20092;-74
2021/05/13 06:25:56;;;;;;;8.25;4.50;;;;;;;14.31;61.77;99071.47;5034080;28;20045;-74
2021/05/13 06:28:23;;;;;;;7.63;4.32;;;;;;;14.37;61.93;99072.78;5033721;28;20136;-77
2021/05/13 06:30:50;;;;;;;10.23;4.70;;;;;;;14.41;61.80;99074.19;5033083;28;20089;-77
2021/05/13 06:33:19;;;;;;;8.18;4.53;;;;;;;14.45;61.70;99070.31;5033268;28;20145;-76
2021/05/13 06:35:46;;;;;;;7.32;4.25;;;;;;;14.52;61.66;99069.78;5034185;28;20144;-77
2021/05/13 06:38:17;;;;;;;8.07;4.85;;;;;;;14.54;61.59;99071.34;5016465;28;20071;-77
2021/05/13 06:40:44;;;;;;;10.10;5.13;;;;;;;14.61;61.63;99068.19;5032933;28;20057;-77
2021/05/13 06:43:13;;;;;;;11.27;4.68;;;;;;;14.65;61.10;99064.31;5033369;28;20089;-75
2021/05/13 06:45:42;;;;;;;9.63;4.93;;;;;;;14.69;61.19;99060.44;5033448;28;20139;-74
2021/05/13 06:48:08;;;;;;;10.80;5.93;;;;;;;14.73;61.28;99059.19;5034397;28;20059;-74
2021/05/13 06:50:37;;;;;;;9.52;4.63;;;;;;;14.75;61.22;99062.53;5033480;28;20467;-74
2021/05/13 06:53:06;;;;;;;7.03;5.07;;;;;;;14.79;61.03;99060.47;5033360;28;20510;-74
2021/05/13 06:55:33;;;;;;;9.15;4.95;;;;;;;14.82;60.96;99058.44;5032779;28;20064;-74
2021/05/13 06:58:01;;;;;;;10.13;4.70;;;;;;;14.86;61.12;99064.28;5032965;28;20452;-74
2021/05/13 07:00:29;;;;;;;9.90;5.30;;;;;;;14.89;61.13;99066.69;5033020;28;20136;-74
2021/05/13 07:03:00;;;;;;;9.17;4.80;;;;;;;14.92;61.23;99066.41;5033044;28;20061;-74
2021/05/13 07:05:27;;;;;;;8.55;4.47;;;;;;;14.96;60.99;99065.16;5031668;28;20128;-75
2021/05/13 07:07:55;;;;;;;7.13;4.40;;;;;;;15.00;61.00;99071.06;5032504;28;20092;-79
2021/05/13 07:10:22;;;;;;;9.13;4.43;;;;;;;15.05;61.20;99063.53;5032311;28;20092;-75
2021/05/13 07:12:49;;;;;;;6.72;4.45;;;;;;;15.11;61.20;99067.47;5030852;28;20049;-75
2021/05/13 07:15:30;;;;;;;8.75;4.18;;;;;;;15.16;60.95;99064.41;5031872;28;20080;-75
2021/05/13 07:17:58;;;;;;;9.00;4.07;;;;;;;15.20;60.43;99061.34;5031812;28;20092;-75
2021/05/13 07:20:25;;;;;;;9.13;4.00;;;;;;;15.26;61.04;99057.34;5031922;28;20100;-75
2021/05/13 07:22:53;;;;;;;8.70;3.92;;;;;;;15.33;60.88;99063.75;5032226;28;20057;-75
2021/05/13 07:25:21;;;;;;;9.70;4.40;;;;;;;15.39;60.93;99064.22;5031985;28;20085;-74
2021/05/13 07:27:51;;;;;;;9.32;4.40;;;;;;;15.46;60.62;99066.16;5032555;28;20049;-79
2021/05/13 07:30:18;;;;;;;8.02;4.72;;;;;;;15.52;60.55;99063.94;5031360;28;20528;-79
2021/05/13 07:32:46;;;;;;;8.38;3.90;;;;;;;15.59;60.22;99070.38;5032280;28;20478;-77
2021/05/13 07:35:16;;;;;;;7.28;3.35;;;;;;;15.64;60.19;99065.50;5032083;28;20100;-75
2021/05/13 07:37:44;;;;;;;7.35;3.45;;;;;;;15.70;60.07;99072.91;5028170;28;20081;-75
2021/05/13 07:40:13;;;;;;;7.85;3.42;;;;;;;15.76;60.17;99063.56;5012052;28;20538;-75
2021/05/13 07:42:40;;;;;;;8.40;3.45;;;;;;;15.82;59.96;99068.31;5011803;28;20136;-75
2021/05/13 07:45:10;;;;;;;6.55;3.30;;;;;;;15.88;58.89;99072.22;5023502;28;20085;-75
2021/05/13 07:47:38;;;;;;;6.25;3.25;;;;;;;15.95;59.27;99069.88;5031649;28;20051;-79
2021/05/13 07:50:14;;;;;;;11.48;2.90;;;;;;;16.01;59.14;99070.16;5031619;28;20525;-79
2021/05/13 07:52:41;;;;;;;9.30;3.20;;;;;;;16.08;59.29;99065.16;5031549;28;20054;-78
2021/05/13 07:55:09;;;;;;;7.63;3.05;;;;;;;16.16;59.19;99061.78;5031689;28;20136;-79
2021/05/13 07:57:35;;;;;;;5.90;2.90;;;;;;;16.23;59.24;99065.53;5031658;28;20059;-79
2021/05/13 08:00:05;;;;;;;7.50;3.03;;;;;;;16.31;58.05;99061.34;5031446;28;20512;-78
2021/05/13 08:02:32;;;;;;;5.88;2.58;;;;;;;16.38;58.57;99057.13;5031494;28;20092;-79
2021/05/13 08:05:02;;;;;;;8.10;3.00;;;;;;;16.45;58.15;99055.56;5031366;28;20561;-79
2021/05/13 08:07:29;;;;;;;6.32;3.08;;;;;;;16.53;58.63;99053.03;5032532;28;20045;-79
2021/05/13 08:09:57;;;;;;;13.60;3.50;;;;;;;16.62;58.82;99050.50;5032520;28;20093;-79
2021/05/13 08:12:24;;;;;;;7.00;2.92;;;;;;;16.70;58.17;99055.13;5033055;28;20462;-79
2021/05/13 08:14:51;;;;;;;10.88;3.05;;;;;;;16.77;57.85;99059.69;5031160;28;20395;-79
2021/05/13 08:17:19;;;;;;;7.55;2.67;;;;;;;16.86;57.65;99057.16;5031359;28;20530;-79
2021/05/13 08:19:45;;;;;;;6.97;2.60;;;;;;;16.92;57.56;99057.41;5031573;28;20058;-79
2021/05/13 08:22:12;;;;;;;7.63;2.88;;;;;;;16.99;57.27;99047.03;5031271;28;20096;-79
2021/05/13 08:24:39;;;;;;;5.05;2.67;;;;;;;17.07;57.29;99048.97;5033986;28;20383;-79
2021/05/13 08:27:06;;;;;;;9.18;2.80;;;;;;;17.15;57.13;99050.88;5035261;28;20093;-78
2021/05/13 08:29:34;;;;;;;5.97;2.28;;;;;;;17.23;57.08;99050.16;5035445;28;20047;-78
2021/05/13 08:32:00;;;;;;;8.00;2.85;;;;;;;17.31;56.81;99042.28;5035151;28;20056;-78
2021/05/13 08:34:27;;;;;;;6.95;3.20;;;;;;;17.39;56.68;99046.84;5035030;28;20057;-79
2021/05/13 08:36:54;;;;;;;5.45;2.40;;;;;;;17.47;56.46;99043.44;5035030;28;20402;-79
2021/05/13 08:39:24;;;;;;;5.47;2.85;;;;;;;17.54;56.94;99050.66;5035090;28;20054;-79
2021/05/13 08:41:51;;;;;;;7.38;2.75;;;;;;;17.63;57.10;99048.06;5035165;28;20092;-79
2021/05/13 08:44:18;;;;;;;5.50;2.40;;;;;;;17.72;57.03;99041.88;5035747;28;20144;-79
2021/05/13 08:46:45;;;;;;;6.80;3.03;;;;;;;17.83;56.82;99044.28;5035076;28;20060;-79
2021/05/13 08:49:12;;;;;;;6.45;3.10;;;;;;;17.95;56.17;99041.41;5034536;28;20057;-79
2021/05/13 08:51:40;;;;;;;6.55;3.35;;;;;;;18.03;56.34;99044.13;5034539;28;20514;-78
2021/05/13 08:54:09;;;;;;;6.63;3.10;;;;;;;18.13;56.57;99045.91;5034711;28;20084;-79
2021/05/13 08:56:36;;;;;;;8.57;3.88;;;;;;;18.23;56.11;99050.16;5034758;28;20128;-79
2021/05/13 08:59:05;;;;;;;6.82;3.13;;;;;;;18.31;56.21;99046.69;5034481;28;20053;-79
2021/05/13 09:01:34;;;;;;;6.82;3.00;;;;;;;18.39;55.71;99045.91;5034549;28;20103;-79
2021/05/13 09:04:02;;;;;;;7.85;3.67;;;;;;;18.48;56.20;99042.34;5034390;28;20053;-79
2021/05/13 09:06:33;;;;;;;4.68;2.70;;;;;;;18.56;55.88;99046.03;5034425;28;20485;-79
2021/05/13 09:09:12;;;;;;;4.32;3.10;;;;;;;18.62;55.96;99043.56;5034272;28;20144;-79
2021/05/13 09:11:50;;;;;;;9.27;3.28;;;;;;;18.69;55.02;99045.63;5034452;28;20061;-79
2021/05/13 09:14:28;;;;;;;6.20;2.95;;;;;;;18.79;54.55;99037.50;5034098;28;20057;-79
2021/05/13 09:16:56;;;;;;;6.20;3.33;;;;;;;18.90;55.15;99045.22;5034574;28;20398;-79
2021/05/13 09:19:27;;;;;;;7.25;3.38;;;;;;;18.96;54.58;99044.59;5034427;28;20057;-79
2021/05/13 09:22:00;;;;;;;4.53;2.83;;;;;;;19.04;54.53;99042.94;5034358;28;20100;-79
2021/05/13 09:24:48;;;;;;;8.45;3.40;;;;;;;19.11;54.94;99038.69;5034763;28;20088;-79
2021/05/13 09:27:33;;;;;;;12.32;3.60;;;;;;;19.20;54.15;99032.38;5014378;28;20060;-79
2021/05/13 09:30:08;;;;;;;9.30;3.53;;;;;;;19.27;54.08;99035.22;5014145;28;20050;-79
2021/05/13 09:32:36;;;;;;;5.88;3.05;;;;;;;19.37;54.74;99032.44;5014337;28;20138;-79
2021/05/13 09:35:13;;;;;;;10.15;3.70;;;;;;;19.44;53.97;99025.41;5013092;28;20137;-79
2021/05/13 09:37:47;;;;;;;8.60;3.42;;;;;;;19.51;53.99;99022.97;5014985;28;20058;-79
2021/05/13 09:40:34;;;;;;;6.82;3.40;;;;;;;19.59;53.24;99017.59;5022452;28;20050;-79
2021/05/13 09:43:21;;;;;;;8.02;3.33;;;;;;;19.67;53.53;99020.28;5034416;28;20049;-77
2021/05/13 09:45:54;;;;;;;8.10;3.65;;;;;;;19.81;54.14;99027.84;5034257;28;20053;-79
2021/05/13 09:48:41;;;;;;;9.82;3.47;;;;;;;19.86;53.26;99020.16;5033618;28;20050;-79
2021/05/13 09:51:23;;;;;;;6.00;3.30;;;;;;;19.98;53.42;99023.31;5033642;28;20100;-79
2021/05/13 09:54:04;;;;;;;6.95;3.55;;;;;;;20.05;53.23;99027.88;5033402;28;20088;-79
2021/05/13 09:56:31;;;;;;;5.30;3.22;;;;;;;20.17;52.83;99024.84;5034338;28;20059;-79
2021/05/13 09:59:18;;;;;;;10.48;3.80;;;;;;;20.22;52.50;99024.34;5033964;28;20132;-79
2021/05/13 10:01:44;;;;;;;5.32;3.60;;;;;;;20.30;52.86;99027.03;5034226;28;20119;-79
2021/05/13 10:04:11;;;;;;;6.80;3.83;;;;;;;20.36;52.92;99023.66;5033573;28;20505;-79
2021/05/13 10:06:39;;;;;;;5.18;3.30;;;;;;;20.45;53.01;99016.47;5033729;28;20141;-79
2021/05/13 10:09:06;;;;;;;6.95;3.78;;;;;;;20.56;52.65;99017.94;5033426;28;20084;-79
2021/05/13 10:11:33;;;;;;;6.78;3.42;;;;;;;20.68;52.49;99018.41;5033666;28;20053;-79
2021/05/13 10:14:00;;;;;;;7.35;3.17;;;;;;;20.80;52.51;99018.88;5033239;28;20053;-79
2021/05/13 10:16:29;;;;;;;5.28;3.00;;;;;;;20.90;51.84;99016.84;5033571;28;20144;-79
2021/05/13 10:19:01;;;;;;;6.32;3.15;;;;;;;20.95;50.08;99022.53;5033366;28;20050;-79
2021/05/13 10:21:31;;;;;;;7.68;3.72;;;;;;;21.01;51.02;99014.81;5033589;28;20141;-79
2021/05/13 10:23:58;;;;;;;7.53;4.07;;;;;;;21.03;51.28;99005.59;5033827;28;20057;-75
2021/05/13 10:26:40;;;;;;;8.82;3.70;;;;;;;21.05;50.85;99005.44;5033377;28;20140;-75
2021/05/13 10:29:23;;;;;;;6.38;3.78;;;;;;;21.12;51.32;99001.03;5033331;28;20049;-75
2021/05/13 10:32:13;;;;;;;8.02;3.85;;;;;;;21.26;50.86;99001.31;5033156;28;20053;-75
2021/05/13 10:34:58;;;;;;;8.20;3.50;;;;;;;21.37;49.82;98997.41;5032958;28;20054;-74
2021/05/13 10:37:38;;;;;;;7.15;3.55;;;;;;;21.51;50.48;98988.59;5033208;28;20049;-75
2021/05/13 10:40:08;;;;;;;5.95;3.47;;;;;;;21.69;50.81;98982.13;5033176;28;20471;-75
2021/05/13 10:42:36;;;;;;;8.52;4.20;;;;;;;21.88;50.75;98983.50;5032781;28;20406;-75
2021/05/13 10:45:25;;;;;;;10.45;3.63;;;;;;;22.05;50.28;98978.81;5032647;28;20132;-75
2021/05/13 10:48:15;;;;;;;6.30;3.70;;;;;;;22.26;49.01;98980.81;5031830;28;20091;-75
2021/05/13 10:50:48;;;;;;;11.07;4.18;;;;;;;22.47;49.69;98976.53;5032594;28;20107;-75
2021/05/13 10:53:33;;;;;;;10.20;3.90;;;;;;;22.62;48.74;98978.44;5032517;28;20140;-75
2021/05/13 10:56:19;;;;;;;5.78;3.72;;;;;;;22.77;47.12;98975.75;5032296;28;20057;-76
2021/05/13 10:59:08;;;;;;;7.30;3.85;;;;;;;22.83;46.94;98977.69;5031703;28;20148;-75
2021/05/13 11:01:48;;;;;;;8.45;4.43;;;;;;;22.88;46.65;98975.25;5032355;28;20100;-75
2021/05/13 11:06:55;;;;;;;7.57;4.97;;;;;;;23.33;48.84;98978.88;5033323;28;20095;-75
2021/05/13 11:09:42;;;;;;;6.63;4.18;;;;;;;23.81;48.26;98967.59;5031769;28;20057;-75
2021/05/13 11:12:12;;;;;;;7.95;4.03;;;;;;;24.43;48.79;98964.31;5031854;28;20574;-75
2021/05/13 11:20:31;;;;;;;7.13;3.58;;;;;;;26.43;45.82;98959.75;5033181;28;20402;-75
2021/05/13 11:23:10;;;;;;;10.52;3.90;;;;;;;27.07;44.41;98957.25;5032161;28;20052;-75
2021/05/13 11:25:44;;;;;;;5.30;3.00;;;;;;;27.61;42.05;98948.00;5032827;28;20057;-75
2021/05/13 11:28:29;;;;;;;5.05;2.78;;;;;;;27.93;41.86;98954.19;5031794;28;20149;-75
2021/05/13 11:31:08;;;;;;;5.30;3.00;;;;;;;28.02;39.66;98959.28;5018782;28;20059;-75
2021/05/13 11:33:41;;;;;;;6.10;2.67;;;;;;;28.00;38.40;98954.13;5031705;28;20132;-75
2021/05/13 11:36:14;;;;;;;5.80;3.25;;;;;;;27.95;38.43;98959.38;5031682;28;20140;-75
2021/05/13 11:38:42;;;;;;;6.43;3.60;;;;;;;27.96;39.07;98952.94;5031858;28;20581;-75
2021/05/13 11:41:10;;;;;;;5.35;2.80;;;;;;;27.92;38.49;98947.09;5033218;28;20053;-75
2021/05/13 11:43:39;;;;;;;6.90;3.13;;;;;;;27.79;37.49;98950.78;5031584;28;20136;-75
2021/05/13 11:46:09;;;;;;;4.45;2.90;;;;;;;27.54;37.36;98951.56;5031243;28;20108;-75
2021/05/13 11:48:41;;;;;;;8.32;3.50;;;;;;;27.18;36.66;98953.03;5031418;28;20054;-75
2021/05/13 11:51:12;;;;;;;6.10;3.08;;;;;;;26.82;36.72;98955.25;5031766;28;20161;-75
2021/05/13 11:53:40;;;;;;;6.55;3.75;;;;;;;26.43;37.60;98957.06;5031826;28;20506;-75
2021/05/13 11:56:08;;;;;;;8.75;3.75;;;;;;;26.04;37.94;98954.22;5031708;28;20473;-76
2021/05/13 11:58:51;;;;;;;5.85;3.72;;;;;;;25.65;37.79;98946.75;5034032;28;20049;-75
2021/05/13 12:01:34;;;;;;;5.07;3.22;;;;;;;25.20;38.71;98948.06;5038271;28;20057;-75
2021/05/13 12:04:23;;;;;;;8.38;3.85;;;;;;;24.89;38.35;98949.44;5033518;28;20064;-75